Time;durP1;ratioP1;P1;durP2;ratioP2;P2;SDS_P1;SDS_P2;PMS_P1;PMS_P2;Temp;Humidity;BMP_temperature;BMP_pressure;BME280_temperature;BME280_humidity;BME280_pressure;Samples;Min_cycle;Max_cycle;Signal;HPM_P1;HPM_P2
2022/05/16 00:01:41;;;;;;;9.73;4.55;;;;;;;16.63;64.08;100356.16;5045628;28;20056;-79
2022/05/16 00:04:08;;;;;;;7.20;4.00;;;;;;;16.58;63.81;100355.59;5047961;28;20049;-79
2022/05/16 00:06:37;;;;;;;8.00;4.00;;;;;;;16.54;64.16;100346.06;5045719;28;20498;-78
2022/05/16 00:09:04;;;;;;;10.20;4.65;;;;;;;16.55;64.34;100353.13;5048893;28;20540;-78
2022/05/16 00:11:31;;;;;;;9.48;4.18;;;;;;;16.52;64.78;100354.25;5048653;28;20426;-77
2022/05/16 00:13:58;;;;;;;9.40;4.25;;;;;;;16.48;64.87;100342.91;5042122;28;20045;-77
2022/05/16 00:16:25;;;;;;;9.23;4.10;;;;;;;16.49;65.01;100343.75;5024400;28;20069;-76
2022/05/16 00:18:51;;;;;;;7.93;4.30;;;;;;;16.38;65.11;100320.47;5043821;28;20726;-79
2022/05/16 00:21:19;;;;;;;8.77;4.13;;;;;;;16.49;64.91;100339.28;5048803;28;20095;-79
2022/05/16 00:23:46;;;;;;;6.43;3.85;;;;;;;16.49;64.90;100327.72;5046310;28;20091;-78
2022/05/16 00:26:12;;;;;;;9.80;4.38;;;;;;;16.49;64.98;100331.25;5038757;28;20056;-78
2022/05/16 00:28:39;;;;;;;7.88;4.35;;;;;;;16.38;65.12;100317.78;5046464;28;20099;-79
2022/05/16 00:31:06;;;;;;;11.95;4.32;;;;;;;16.34;65.09;100324.34;5045747;28;20386;-79
2022/05/16 00:33:33;;;;;;;6.30;4.15;;;;;;;16.25;65.52;100318.78;5041633;28;20037;-78
2022/05/16 00:36:00;;;;;;;6.95;4.07;;;;;;;16.24;65.87;100322.41;5044888;28;20049;-78
2022/05/16 00:38:26;;;;;;;7.65;4.43;;;;;;;16.13;65.93;100315.19;5040215;28;20049;-76
2022/05/16 00:40:58;;;;;;;9.57;4.45;;;;;;;16.06;66.56;100309.41;5047178;28;20046;-79
2022/05/16 00:43:47;;;;;;;10.90;4.35;;;;;;;16.05;67.04;100320.22;5041681;28;20071;-78
2022/05/16 00:46:16;;;;;;;9.90;4.63;;;;;;;15.90;67.16;100300.78;5047409;28;20595;-78
2022/05/16 00:48:44;;;;;;;7.93;4.47;;;;;;;15.93;67.37;100313.91;5047953;28;20052;-75
2022/05/16 00:51:17;;;;;;;7.93;4.53;;;;;;;15.72;67.24;100297.59;5050687;28;20073;-77
2022/05/16 00:53:44;;;;;;;6.55;4.60;;;;;;;15.80;67.80;100307.72;5042322;28;20432;-77
2022/05/16 00:56:11;;;;;;;9.40;4.63;;;;;;;15.76;68.04;100301.75;5046738;28;20122;-78
2022/05/16 00:58:41;;;;;;;10.80;4.35;;;;;;;15.74;68.33;100314.34;5029514;28;20072;-78
2022/05/16 01:06:42;;;;;;;8.07;4.32;;;;;;;15.62;68.47;100299.19;5043291;28;20135;-79
2022/05/16 01:09:09;;;;;;;7.15;4.40;;;;;;;15.58;68.32;100297.72;5043462;28;20056;-78
2022/05/16 01:11:37;;;;;;;8.75;4.93;;;;;;;15.44;68.75;100285.25;5043297;28;20072;-78
2022/05/16 01:14:04;;;;;;;9.63;5.20;;;;;;;15.52;69.08;100299.91;5041746;28;20048;-77
2022/05/16 01:16:30;;;;;;;8.60;4.60;;;;;;;15.47;68.94;100300.19;5044395;28;20060;-79
2022/05/16 01:18:57;;;;;;;9.68;4.90;;;;;;;15.39;69.62;100297.22;5023142;28;20041;-77
2022/05/16 01:21:41;;;;;;;8.90;4.47;;;;;;;15.38;69.55;100303.50;5055022;28;20110;-78
2022/05/16 01:24:16;;;;;;;7.35;4.63;;;;;;;15.30;69.84;100287.16;5047276;28;20113;-79
2022/05/16 01:26:43;;;;;;;8.48;5.13;;;;;;;15.27;70.03;100293.56;5049938;28;20069;-79
2022/05/16 01:29:10;;;;;;;7.68;5.00;;;;;;;15.23;70.26;100291.22;5051938;28;20045;-77
2022/05/16 01:31:37;;;;;;;8.57;4.68;;;;;;;15.18;70.63;100291.53;5063097;28;20489;-79
2022/05/16 01:34:04;;;;;;;8.40;4.93;;;;;;;15.02;70.57;100269.50;5048178;28;20551;-76
2022/05/16 01:36:31;;;;;;;11.38;4.85;;;;;;;15.05;71.13;100285.31;5050571;28;20079;-78
2022/05/16 01:38:57;;;;;;;8.00;4.60;;;;;;;15.06;70.78;100293.22;5052440;28;20037;-78
2022/05/16 01:41:25;;;;;;;7.45;4.68;;;;;;;15.00;71.27;100284.75;5052965;28;20107;-79
2022/05/16 01:43:57;;;;;;;8.05;4.82;;;;;;;15.03;71.12;100284.56;5047097;28;20049;-78
2022/05/16 01:46:28;;;;;;;7.68;4.57;;;;;;;15.17;71.09;100307.63;5038866;28;20045;-78
2022/05/16 01:48:55;;;;;;;6.07;4.45;;;;;;;15.15;70.90;100288.19;5051436;28;20115;-77
2022/05/16 01:51:24;;;;;;;10.40;4.97;;;;;;;15.22;70.71;100300.19;5053293;28;20045;-78
2022/05/16 01:53:50;;;;;;;8.07;4.35;;;;;;;15.20;70.84;100294.09;5052976;28;20448;-77
2022/05/16 01:56:18;;;;;;;7.88;4.78;;;;;;;15.17;70.37;100286.28;5052209;28;20066;-77
2022/05/16 01:58:45;;;;;;;8.55;4.60;;;;;;;15.20;70.82;100297.63;5049268;28;20053;-79
2022/05/16 02:01:14;;;;;;;7.03;4.70;;;;;;;15.20;70.49;100294.94;5043204;28;20053;-76
2022/05/16 02:03:44;;;;;;;10.57;4.78;;;;;;;15.20;70.32;100291.41;5033258;28;20132;-77
2022/05/16 02:06:11;;;;;;;12.02;4.65;;;;;;;15.23;70.45;100294.75;5047338;28;20136;-78
2022/05/16 02:08:38;;;;;;;7.85;4.68;;;;;;;15.29;70.18;100296.97;5039822;28;20099;-77
2022/05/16 02:11:06;;;;;;;10.57;4.85;;;;;;;15.26;69.65;100273.19;5051665;28;20064;-78
2022/05/16 02:13:35;;;;;;;7.07;4.70;;;;;;;15.29;69.37;100269.44;5052454;28;20445;-77
2022/05/16 02:16:02;;;;;;;6.93;4.47;;;;;;;15.43;69.37;100282.69;5048925;28;20079;-77
2022/05/16 02:18:29;;;;;;;8.80;4.50;;;;;;;15.45;69.20;100280.78;5048077;28;20050;-79
2022/05/16 02:24:38;;;;;;;8.25;4.43;;;;;;;15.36;69.06;100273.41;5045921;28;20445;-79
2022/05/16 02:26:28;;;;;;;8.73;4.50;;;;;;;15.49;68.71;100284.94;5042603;28;20049;-79
2022/05/16 02:28:55;;;;;;;8.73;4.18;;;;;;;15.44;68.98;100281.72;5047721;28;20132;-78
2022/05/16 02:31:21;;;;;;;10.50;4.75;;;;;;;15.43;68.90;100272.00;5050493;28;20087;-77
2022/05/16 02:33:48;;;;;;;7.15;4.47;;;;;;;15.53;68.56;100278.44;5050645;28;20107;-78
2022/05/16 02:36:15;;;;;;;7.55;4.32;;;;;;;15.52;68.75;100276.72;5024608;28;20045;-76
2022/05/16 02:38:43;;;;;;;10.50;5.18;;;;;;;15.50;69.01;100278.66;5049495;28;20045;-77
2022/05/16 02:41:10;;;;;;;7.03;4.55;;;;;;;15.46;68.76;100277.16;5052962;28;20049;-76
2022/05/16 02:43:36;;;;;;;8.65;4.40;;;;;;;15.44;68.52;100279.06;5048279;28;20457;-77
2022/05/16 02:46:03;;;;;;;7.55;4.50;;;;;;;15.39;67.86;100287.41;5057061;28;20679;-77
2022/05/16 02:48:30;;;;;;;6.63;4.55;;;;;;;15.38;68.12;100284.84;5065656;28;20112;-78
2022/05/16 02:50:57;;;;;;;6.30;4.05;;;;;;;15.38;68.02;100275.03;5060091;28;20112;-78
2022/05/16 02:53:23;;;;;;;10.75;4.43;;;;;;;15.34;67.71;100267.31;5053074;28;20076;-77
2022/05/16 02:55:50;;;;;;;9.10;4.40;;;;;;;15.31;67.87;100256.84;5051883;28;20146;-78
2022/05/16 02:58:16;;;;;;;7.90;4.43;;;;;;;15.33;68.30;100260.28;5044283;28;20049;-78
2022/05/16 03:00:43;;;;;;;8.40;4.55;;;;;;;15.28;68.66;100246.38;5050261;28;20459;-78
2022/05/16 03:03:10;;;;;;;6.53;4.30;;;;;;;15.41;68.66;100272.16;5050340;28;20053;-77
2022/05/16 03:05:36;;;;;;;5.25;4.20;;;;;;;15.42;68.32;100267.66;5045967;28;20061;-78
2022/05/16 03:08:04;;;;;;;8.10;4.43;;;;;;;15.43;67.91;100256.84;5049345;28;20060;-78
2022/05/16 03:10:31;;;;;;;8.40;4.38;;;;;;;15.48;67.44;100264.56;5044416;28;20077;-79
2022/05/16 03:12:58;;;;;;;6.50;4.32;;;;;;;15.48;67.26;100259.22;5039963;28;20048;-77
2022/05/16 03:15:24;;;;;;;9.52;4.78;;;;;;;15.53;67.50;100273.09;5027842;28;20042;-78
2022/05/16 03:17:51;;;;;;;8.75;4.38;;;;;;;15.52;67.06;100254.53;5048219;28;20134;-78
2022/05/16 03:20:19;;;;;;;7.95;4.30;;;;;;;15.57;66.61;100255.97;5049710;28;20441;-77
2022/05/16 03:22:46;;;;;;;7.30;4.43;;;;;;;15.53;67.12;100250.91;5044688;28;20050;-77
2022/05/16 03:25:13;;;;;;;7.35;4.93;;;;;;;15.50;66.85;100243.97;5049823;28;20064;-78
2022/05/16 03:27:40;;;;;;;9.20;4.38;;;;;;;15.58;66.81;100243.47;5047549;28;20068;-77
2022/05/16 03:30:09;;;;;;;8.65;4.32;;;;;;;15.56;66.36;100238.22;5049850;28;20069;-78
2022/05/16 03:32:36;;;;;;;7.38;3.75;;;;;;;15.58;65.96;100244.31;5042702;28;20130;-78
2022/05/16 03:35:04;;;;;;;6.07;3.97;;;;;;;15.60;65.43;100242.38;5043132;28;20041;-77
2022/05/16 03:37:31;;;;;;;8.38;4.18;;;;;;;15.62;65.33;100240.47;5044845;28;20071;-78
2022/05/16 03:42:43;;;;;;;9.70;3.80;;;;;;;15.57;65.37;100229.28;5044918;28;20049;-79
2022/05/16 03:45:10;;;;;;;8.15;3.72;;;;;;;15.69;65.40;100248.91;5045267;28;20052;-77
2022/05/16 03:47:36;;;;;;;7.60;3.67;;;;;;;15.69;65.12;100252.44;5046383;28;20492;-77
2022/05/16 03:50:05;;;;;;;6.10;3.72;;;;;;;15.71;65.76;100249.66;5043415;28;20095;-78
2022/05/16 03:52:32;;;;;;;8.73;4.05;;;;;;;15.51;65.17;100215.47;5048697;28;20172;-79
2022/05/16 03:54:59;;;;;;;8.75;4.45;;;;;;;15.74;64.99;100257.44;5040631;28;20494;-78
2022/05/16 03:57:26;;;;;;;9.55;4.45;;;;;;;15.73;65.07;100275.28;5053314;28;20048;-77
2022/05/16 03:59:52;;;;;;;8.05;4.20;;;;;;;15.60;65.41;100269.06;5055262;28;20045;-78
2022/05/16 04:02:19;;;;;;;7.75;4.85;;;;;;;15.38;67.35;100250.16;5050398;28;20403;-79
2022/05/16 04:04:46;;;;;;;10.05;4.60;;;;;;;15.29;68.17;100264.97;5043519;28;20059;-77
2022/05/16 04:07:12;;;;;;;11.55;4.53;;;;;;;15.21;68.81;100266.47;5050558;28;20049;-77
2022/05/16 04:09:39;;;;;;;6.78;4.55;;;;;;;15.20;69.02;100260.28;5027965;28;20080;-77
2022/05/16 04:12:06;;;;;;;8.40;4.55;;;;;;;15.20;68.96;100262.09;5041406;28;20080;-77
2022/05/16 04:14:33;;;;;;;8.93;4.60;;;;;;;15.28;68.24;100273.91;5045881;28;20493;-78
2022/05/16 04:17:00;;;;;;;9.20;4.70;;;;;;;15.30;68.09;100266.66;5050228;28;20063;-80
2022/05/16 04:19:27;;;;;;;9.10;4.57;;;;;;;15.32;68.60;100250.56;5046503;28;20091;-80
2022/05/16 04:21:53;;;;;;;7.63;4.38;;;;;;;15.46;67.86;100266.47;5038069;28;20466;-78
2022/05/16 04:24:20;;;;;;;8.32;4.13;;;;;;;15.54;67.02;100272.16;5031943;28;20060;-78
2022/05/16 04:26:47;;;;;;;11.38;4.72;;;;;;;15.56;67.43;100262.25;5048757;28;20138;-77
2022/05/16 04:29:13;;;;;;;8.05;5.07;;;;;;;15.54;67.43;100264.13;5043853;28;20033;-78
2022/05/16 04:31:40;;;;;;;8.13;4.25;;;;;;;15.62;67.39;100276.97;5049239;28;20476;-78
2022/05/16 04:34:09;;;;;;;9.38;4.93;;;;;;;15.54;67.01;100260.63;5043317;28;20041;-78
2022/05/16 04:36:39;;;;;;;8.23;4.57;;;;;;;15.66;67.42;100289.16;5049953;28;20083;-77
2022/05/16 04:39:05;;;;;;;11.48;5.20;;;;;;;15.61;67.55;100278.78;5049001;28;20135;-80
2022/05/16 04:44:17;;;;;;;7.95;5.05;;;;;;;15.59;67.84;100262.03;5050164;28;20079;-78
2022/05/16 04:46:44;;;;;;;10.48;5.00;;;;;;;15.76;67.27;100279.53;5044112;28;20073;-80
2022/05/16 04:49:11;;;;;;;9.38;4.75;;;;;;;15.77;66.60;100275.91;5045527;28;20071;-79
2022/05/16 04:51:37;;;;;;;9.20;4.38;;;;;;;15.84;66.80;100279.00;5047307;28;20049;-79
2022/05/16 04:54:04;;;;;;;6.70;4.68;;;;;;;15.90;66.70;100283.91;5050004;28;20084;-79
2022/05/16 04:56:32;;;;;;;7.72;4.45;;;;;;;16.01;66.37;100284.00;5051560;28;20084;-80
2022/05/16 04:58:59;;;;;;;10.45;4.78;;;;;;;16.10;65.86;100283.34;5053772;28;20056;-78
2022/05/16 05:01:25;;;;;;;10.27;4.78;;;;;;;16.22;65.27;100281.59;5045890;28;20052;-78
2022/05/16 05:03:53;;;;;;;10.80;4.90;;;;;;;16.27;65.22;100280.31;5043942;28;20041;-79
2022/05/16 05:06:21;;;;;;;9.35;5.05;;;;;;;16.23;65.50;100270.78;5043133;28;20056;-78
2022/05/16 05:08:47;;;;;;;10.65;5.20;;;;;;;16.32;65.47;100277.31;5047714;28;20045;-76
2022/05/16 05:16:44;;;;;;;9.50;4.25;;;;;;;16.42;64.13;100271.19;5051341;28;20135;-77
2022/05/16 05:19:11;;;;;;;7.38;4.80;;;;;;;16.26;65.03;100251.88;5042367;28;20136;-78
2022/05/16 05:21:40;;;;;;;10.50;5.20;;;;;;;16.35;65.29;100274.41;5050633;28;20068;-78
2022/05/16 05:24:07;;;;;;;7.53;4.40;;;;;;;16.43;65.41;100280.91;5052101;28;20049;-78
2022/05/16 05:26:34;;;;;;;6.32;4.15;;;;;;;16.47;65.79;100287.75;5047329;28;20045;-80
2022/05/16 05:29:01;;;;;;;9.80;4.72;;;;;;;16.57;65.35;100282.56;5044750;28;20052;-78
2022/05/16 05:31:28;;;;;;;6.75;4.70;;;;;;;16.64;65.57;100281.19;5052210;28;20049;-79
2022/05/16 05:33:55;;;;;;;9.90;4.65;;;;;;;16.76;65.13;100290.13;5032381;28;20057;-77
2022/05/16 05:36:25;;;;;;;10.70;4.75;;;;;;;16.78;64.33;100274.81;5047992;28;20049;-80
2022/05/16 05:38:52;;;;;;;10.38;5.18;;;;;;;16.97;63.75;100280.50;5048831;28;20048;-78
2022/05/16 05:41:22;;;;;;;9.73;4.75;;;;;;;17.29;62.66;100315.53;5030409;28;20045;-80
2022/05/16 05:43:49;;;;;;;7.22;5.05;;;;;;;17.43;62.39;100314.47;5048183;28;20079;-79
2022/05/16 05:46:16;;;;;;;12.43;5.70;;;;;;;17.55;62.43;100292.09;5050828;28;20076;-79
2022/05/16 05:48:44;;;;;;;13.38;5.30;;;;;;;17.85;62.04;100316.53;5052080;28;20053;-81
2022/05/16 05:51:12;;;;;;;10.52;4.75;;;;;;;18.05;61.03;100314.09;5040397;28;20049;-79
2022/05/16 05:53:41;;;;;;;8.63;4.85;;;;;;;18.19;59.67;100308.50;5049205;28;20481;-79
2022/05/16 05:56:10;;;;;;;15.07;5.82;;;;;;;18.34;59.21;100312.63;5047252;28;20134;-77
2022/05/16 05:58:37;;;;;;;11.70;4.90;;;;;;;18.30;59.65;100297.75;5034576;28;20087;-79
2022/05/16 06:01:07;;;;;;;17.27;5.18;;;;;;;18.26;60.71;100325.78;5053287;28;20041;-78
2022/05/16 06:03:34;;;;;;;13.48;5.78;;;;;;;17.93;61.81;100320.44;5028205;28;20232;-78
2022/05/16 06:06:01;;;;;;;18.38;5.68;;;;;;;17.83;62.25;100320.28;5052518;28;20131;-80
2022/05/16 06:08:28;;;;;;;14.68;5.85;;;;;;;17.61;62.85;100306.84;5040335;28;20064;-79
2022/05/16 06:10:55;;;;;;;11.88;5.40;;;;;;;17.49;63.72;100313.97;5052071;28;20045;-78
2022/05/16 06:13:22;;;;;;;9.75;5.63;;;;;;;17.35;64.22;100315.03;5051133;28;20095;-78
2022/05/16 06:15:49;;;;;;;15.45;6.00;;;;;;;17.31;64.84;100312.72;5049957;28;20126;-80
2022/05/16 06:18:15;;;;;;;12.48;5.45;;;;;;;17.28;64.97;100313.81;5046562;28;20184;-78
2022/05/16 06:20:42;;;;;;;19.67;6.35;;;;;;;17.34;65.50;100316.00;5044347;28;20107;-80
2022/05/16 06:23:09;;;;;;;11.82;5.40;;;;;;;17.37;64.75;100310.44;5049181;28;20045;-78
2022/05/16 06:25:39;;;;;;;9.52;5.70;;;;;;;17.44;63.72;100324.22;5052151;28;20106;-79
2022/05/16 06:28:14;;;;;;;15.23;5.68;;;;;;;17.46;64.42;100324.94;5042187;28;20064;-80
2022/05/16 06:30:46;;;;;;;16.00;5.60;;;;;;;17.48;64.52;100325.66;5049183;28;20037;-80
2022/05/16 06:33:14;;;;;;;15.05;6.35;;;;;;;17.46;64.58;100314.25;5051953;28;20059;-78
2022/05/16 06:35:41;;;;;;;13.50;6.03;;;;;;;17.52;64.55;100319.09;5050167;28;20109;-80
2022/05/16 06:38:18;;;;;;;14.63;5.50;;;;;;;17.61;64.69;100320.22;5052968;28;20056;-78
2022/05/16 06:40:46;;;;;;;13.18;5.38;;;;;;;17.71;63.93;100319.44;5047893;28;20041;-78
2022/05/16 06:43:15;;;;;;;11.32;6.00;;;;;;;17.79;63.44;100326.84;5051305;28;20037;-79
2022/05/16 06:45:42;;;;;;;11.73;5.55;;;;;;;17.83;64.52;100325.66;5033606;28;20048;-78
2022/05/16 06:48:09;;;;;;;8.32;5.70;;;;;;;17.80;63.41;100316.00;5050623;28;20551;-77
2022/05/16 06:50:37;;;;;;;11.75;6.07;;;;;;;17.85;63.40;100335.28;5031082;28;20051;-81
2022/05/16 06:53:05;;;;;;;12.85;5.97;;;;;;;17.82;63.51;100337.31;5052270;28;20086;-80
2022/05/16 06:55:32;;;;;;;16.02;5.55;;;;;;;17.80;63.45;100332.09;5041779;28;20056;-80
2022/05/16 06:57:59;;;;;;;13.82;5.35;;;;;;;17.84;63.08;100346.09;5050536;28;20118;-80
2022/05/16 07:00:26;;;;;;;10.45;5.72;;;;;;;17.84;63.50;100352.31;5049322;28;20052;-78
2022/05/16 07:02:53;;;;;;;14.38;6.05;;;;;;;17.87;63.14;100346.72;5050814;28;20056;-79
2022/05/16 07:05:40;;;;;;;9.63;5.80;;;;;;;17.96;62.57;100349.63;5041631;28;20048;-80
2022/05/16 07:08:09;;;;;;;11.00;5.53;;;;;;;18.12;61.66;100361.72;5036843;28;20064;-78
2022/05/16 07:10:36;;;;;;;10.43;5.45;;;;;;;18.31;61.20;100353.06;5033741;28;20045;-80
2022/05/16 07:13:03;;;;;;;13.13;5.40;;;;;;;18.51;61.29;100357.72;5045591;28;20045;-79
2022/05/16 07:15:29;;;;;;;11.57;5.50;;;;;;;18.61;60.48;100341.75;5050770;28;20069;-79
2022/05/16 07:17:56;;;;;;;10.77;5.40;;;;;;;18.91;59.48;100363.38;5052855;28;20052;-79
2022/05/16 07:20:23;;;;;;;11.45;5.47;;;;;;;19.01;58.73;100355.44;5045292;28;20042;-78
2022/05/16 07:22:49;;;;;;;12.07;5.63;;;;;;;18.97;57.71;100359.34;5048372;28;20141;-79
2022/05/16 07:25:22;;;;;;;11.27;5.28;;;;;;;19.07;57.52;100362.97;5049574;28;20180;-80
2022/05/16 07:27:58;;;;;;;14.63;5.32;;;;;;;19.20;57.70;100369.03;5051256;28;20095;-80
2022/05/16 07:30:30;;;;;;;12.20;4.90;;;;;;;19.39;57.04;100362.13;5047847;28;20072;-80
2022/05/16 07:32:57;;;;;;;15.20;6.05;;;;;;;19.53;56.92;100357.31;5049625;28;20045;-80
2022/05/16 07:35:28;;;;;;;17.40;5.88;;;;;;;19.53;57.41;100361.84;5047978;28;20075;-80
2022/05/16 07:37:55;;;;;;;;;;;;;;;19.53;57.03;100367.19;5045357;28;20040;-80
2022/05/16 07:40:24;;;;;;;11.27;5.32;;;;;;;19.58;56.54;100367.69;5042715;28;19982;-80
2022/05/16 07:42:52;;;;;;;12.75;5.25;;;;;;;19.56;55.93;100351.69;5048932;28;20041;-80
2022/05/16 07:45:20;;;;;;;11.73;5.10;;;;;;;19.75;55.99;100353.66;5046995;28;20099;-78
2022/05/16 07:47:49;;;;;;;11.70;4.80;;;;;;;20.03;54.82;100362.88;5026664;28;20045;-78
2022/05/16 07:50:22;;;;;;;8.57;4.88;;;;;;;20.21;53.71;100358.59;5026413;28;20079;-80
2022/05/16 07:52:51;;;;;;;10.43;5.03;;;;;;;20.35;53.35;100343.06;5047166;28;20076;-81
2022/05/16 07:55:23;;;;;;;10.75;5.03;;;;;;;20.87;54.26;100337.47;5049218;28;20033;-78
2022/05/16 07:57:50;;;;;;;13.88;5.70;;;;;;;21.45;50.28;100379.75;5049615;28;20059;-78
2022/05/16 08:00:20;;;;;;;10.88;5.22;;;;;;;21.61;49.07;100351.25;5050207;28;20136;-79
2022/05/16 08:02:47;;;;;;;13.60;5.28;;;;;;;21.96;48.72;100376.72;5044617;28;20045;-78
2022/05/16 08:05:17;;;;;;;13.85;5.43;;;;;;;21.82;49.11;100361.84;5050440;28;20041;-79
2022/05/16 08:10:31;;;;;;;12.20;5.53;;;;;;;21.25;49.88;100379.75;5047029;28;20049;-80
2022/05/16 08:13:00;;;;;;;11.45;5.05;;;;;;;20.84;51.38;100358.41;5042921;28;20117;-78
2022/05/16 08:15:28;;;;;;;8.98;4.43;;;;;;;20.83;51.96;100378.22;5044442;28;20045;-79
2022/05/16 08:17:56;;;;;;;9.30;4.80;;;;;;;20.90;50.73;100355.16;5046108;28;20159;-79
2022/05/16 08:20:24;;;;;;;8.05;4.63;;;;;;;21.12;51.28;100376.44;5045532;28;20107;-78
2022/05/16 08:22:51;;;;;;;11.60;4.90;;;;;;;21.33;48.87;100381.75;5048543;28;20064;-78
2022/05/16 08:25:18;;;;;;;7.25;4.60;;;;;;;21.52;48.64;100391.69;5049330;28;20048;-79
2022/05/16 08:27:45;;;;;;;10.07;4.80;;;;;;;21.75;48.11;100384.97;5049732;28;20072;-79
2022/05/16 08:30:13;;;;;;;10.90;4.70;;;;;;;22.04;48.14;100393.91;5054822;28;20080;-79
2022/05/16 08:32:40;;;;;;;10.82;4.90;;;;;;;22.03;48.50;100380.59;5054859;28;20203;-79
2022/05/16 08:35:08;;;;;;;9.05;4.55;;;;;;;21.91;48.91;100393.31;5055860;28;20052;-78
2022/05/16 08:40:23;;;;;;;10.50;5.20;;;;;;;21.48;49.29;100388.41;5056174;28;20083;-79
2022/05/16 08:42:51;;;;;;;12.73;5.97;;;;;;;21.46;49.75;100390.41;5052944;28;20079;-77
2022/05/16 08:45:29;;;;;;;9.63;4.95;;;;;;;21.71;49.72;100394.38;5055485;28;20049;-77
2022/05/16 08:48:08;;;;;;;11.45;5.63;;;;;;;22.25;48.54;100390.16;5052261;28;20056;-79
2022/05/16 08:50:41;;;;;;;15.10;7.93;;;;;;;22.15;47.83;100406.38;5048103;28;20060;-77
2022/05/16 08:53:18;;;;;;;7.60;4.82;;;;;;;22.41;48.11;100403.88;5056054;28;20045;-79
2022/05/16 08:55:53;;;;;;;15.50;12.25;;;;;;;22.86;47.30;100392.31;5054024;28;20049;-77
2022/05/16 08:58:26;;;;;;;13.27;9.25;;;;;;;23.23;46.83;100405.75;5050653;28;20053;-79
2022/05/16 09:00:59;;;;;;;10.43;5.07;;;;;;;23.91;45.34;100397.97;5056391;28;20040;-78
2022/05/16 09:03:54;;;;;;;12.10;6.93;;;;;;;24.17;44.06;100389.84;5047831;28;20079;-80
2022/05/16 09:06:37;;;;;;;9.10;4.18;;;;;;;23.57;45.43;100398.69;5053886;28;20481;-80
2022/05/16 09:09:12;;;;;;;6.22;4.18;;;;;;;22.93;46.97;100383.50;5061659;28;20049;-79
2022/05/16 09:11:59;;;;;;;8.95;4.45;;;;;;;22.69;47.51;100393.94;5049200;28;20057;-79
2022/05/16 09:14:27;;;;;;;7.18;4.10;;;;;;;22.52;48.79;100371.28;5054309;28;20033;-78
2022/05/16 09:17:23;;;;;;;5.78;3.95;;;;;;;22.88;48.68;100395.72;5051663;28;20395;-79
2022/05/16 09:20:13;;;;;;;7.80;4.22;;;;;;;23.18;47.96;100387.28;5038978;28;20049;-79
2022/05/16 09:23:06;;;;;;;6.55;3.53;;;;;;;23.09;47.42;100359.34;5047275;28;20532;-80
2022/05/16 09:25:44;;;;;;;7.25;3.70;;;;;;;23.24;47.35;100362.38;5055570;28;20571;-79
2022/05/16 09:31:00;;;;;;;4.68;3.97;;;;;;;23.83;46.50;100374.41;5047305;28;20683;-78
2022/05/16 09:33:29;;;;;;;7.72;3.60;;;;;;;23.86;47.36;100363.28;5054453;28;20574;-79
2022/05/16 09:36:08;;;;;;;10.95;3.85;;;;;;;23.90;46.12;100382.75;5033564;28;20144;-80
2022/05/16 09:38:35;;;;;;;7.57;3.78;;;;;;;23.88;46.62;100384.75;5052208;28;20073;-79
2022/05/16 09:41:05;;;;;;;7.05;4.32;;;;;;;24.15;46.18;100387.28;5049362;28;20104;-78
2022/05/16 09:43:34;;;;;;;6.60;3.72;;;;;;;24.42;45.00;100383.59;5048668;28;20053;-77
2022/05/16 09:46:28;;;;;;;10.57;4.18;;;;;;;24.57;44.70;100368.44;5051525;28;20073;-78
2022/05/16 09:49:06;;;;;;;7.32;3.78;;;;;;;24.56;45.21;100379.41;5049054;28;20045;-79
2022/05/16 09:51:51;;;;;;;9.60;4.85;;;;;;;24.48;45.59;100358.59;5051433;28;20451;-77
2022/05/16 09:54:23;;;;;;;8.15;4.65;;;;;;;24.65;44.98;100384.72;5042733;28;20453;-81
2022/05/16 09:57:12;;;;;;;10.45;4.32;;;;;;;24.61;44.84;100377.09;5042768;28;20128;-77
2022/05/16 09:59:42;;;;;;;7.88;4.38;;;;;;;24.72;45.66;100382.19;5040522;28;20112;-81
2022/05/16 10:02:28;;;;;;;6.60;4.10;;;;;;;24.80;45.22;100384.94;5051762;28;20463;-80
2022/05/16 10:05:24;;;;;;;8.90;4.65;;;;;;;24.67;45.53;100380.00;5048787;28;20377;-80
2022/05/16 10:07:59;;;;;;;9.25;4.47;;;;;;;24.37;45.91;100380.53;5041276;28;20088;-79
2022/05/16 10:10:36;;;;;;;7.03;4.18;;;;;;;24.53;46.34;100404.13;5050912;28;20144;-79
2022/05/16 10:13:06;;;;;;;8.13;4.43;;;;;;;24.55;46.50;100378.59;5027557;28;20040;-80
2022/05/16 10:15:35;;;;;;;12.45;4.38;;;;;;;24.96;46.46;100397.72;5033574;28;20049;-80
2022/05/16 10:18:07;;;;;;;7.00;4.60;;;;;;;25.09;45.81;100381.84;5051473;28;20127;-78
2022/05/16 10:20:40;;;;;;;7.50;4.65;;;;;;;25.13;45.37;100386.78;5050372;28;20053;-79
2022/05/16 10:23:12;;;;;;;8.60;4.22;;;;;;;25.03;45.91;100394.19;5041286;28;20076;-79
2022/05/16 10:25:44;;;;;;;10.38;4.38;;;;;;;25.10;45.76;100397.09;5046231;28;20052;-78
2022/05/16 10:28:16;;;;;;;9.27;4.28;;;;;;;24.94;45.71;100386.22;5048962;28;20597;-78
2022/05/16 10:33:34;;;;;;;10.50;4.53;;;;;;;25.70;44.46;100391.44;5050245;28;20073;-79
2022/05/16 10:36:06;;;;;;;9.75;4.88;;;;;;;26.06;43.57;100387.34;5050823;28;20501;-77
2022/05/16 10:39:01;;;;;;;6.75;4.47;;;;;;;26.41;43.15;100396.97;5050041;28;20106;-78
2022/05/16 10:41:43;;;;;;;10.50;4.40;;;;;;;26.37;43.45;100390.19;5047814;28;20044;-79
2022/05/16 10:44:31;;;;;;;7.95;4.00;;;;;;;26.34;43.68;100366.09;5046518;28;20148;-80
2022/05/16 10:47:13;;;;;;;8.10;4.20;;;;;;;26.48;42.75;100397.97;5046584;28;20049;-77
2022/05/16 10:49:55;;;;;;;11.27;5.13;;;;;;;26.65;43.00;100387.88;5042588;28;20473;-77
2022/05/16 10:52:37;;;;;;;8.35;4.40;;;;;;;26.81;42.11;100373.38;5044338;28;20045;-77
2022/05/16 10:55:05;;;;;;;9.40;4.65;;;;;;;27.18;41.92;100389.88;5020965;28;20049;-79
2022/05/16 10:58:05;;;;;;;7.97;3.90;;;;;;;26.89;42.11;100389.66;5045186;28;20094;-79
2022/05/16 11:01:08;;;;;;;10.27;4.60;;;;;;;26.70;42.83;100380.06;5046252;28;20057;-79
2022/05/16 11:04:13;;;;;;;7.45;4.30;;;;;;;26.95;42.43;100382.69;5018022;28;20056;-78
2022/05/16 11:07:15;;;;;;;7.57;5.00;;;;;;;27.25;42.03;100381.81;5045866;28;20049;-78
2022/05/16 11:10:01;;;;;;;9.52;4.32;;;;;;;27.11;42.35;100361.69;5048688;28;20068;-79
2022/05/16 11:12:45;;;;;;;7.20;4.25;;;;;;;27.16;42.55;100369.31;5048616;28;20460;-77
2022/05/16 11:15:15;;;;;;;8.23;4.40;;;;;;;27.15;42.49;100362.19;5043254;28;20045;-79
2022/05/16 11:18:09;;;;;;;7.97;4.35;;;;;;;27.03;42.50;100345.47;5049076;28;20045;-79
2022/05/16 11:20:50;;;;;;;10.88;4.15;;;;;;;26.84;42.61;100354.03;5043158;28;20047;-78
2022/05/16 11:23:55;;;;;;;7.90;4.13;;;;;;;26.50;43.36;100360.63;5046875;28;20101;-78
2022/05/16 11:26:33;;;;;;;6.30;4.07;;;;;;;26.74;43.66;100347.97;4998486;28;20045;-79
2022/05/16 11:29:18;;;;;;;5.03;4.18;;;;;;;27.24;42.00;100339.34;5045959;28;20559;-79
2022/05/16 11:31:57;;;;;;;10.40;4.43;;;;;;;27.39;42.02;100328.56;5044525;28;20037;-78
2022/05/16 11:34:43;;;;;;;11.30;4.47;;;;;;;27.21;42.05;100307.13;5047808;28;20128;-78
2022/05/16 11:37:26;;;;;;;14.20;4.25;;;;;;;27.31;42.48;100324.03;5047129;28;20502;-78
2022/05/16 11:40:26;;;;;;;10.15;4.75;;;;;;;27.44;43.16;100324.25;5042894;28;20068;-78
2022/05/16 11:43:24;;;;;;;8.20;4.20;;;;;;;27.47;41.47;100323.88;5041799;28;20071;-79
2022/05/16 11:46:22;;;;;;;10.18;4.13;;;;;;;26.97;42.64;100324.41;5043180;28;20056;-78
2022/05/16 11:49:13;;;;;;;7.70;4.25;;;;;;;26.93;43.81;100323.03;5046804;28;20417;-78
2022/05/16 11:52:16;;;;;;;10.25;4.63;;;;;;;26.91;43.55;100330.56;5046723;28;20420;-79
2022/05/16 12:00:56;;;;;;;9.30;4.53;;;;;;;27.08;44.11;100329.44;5049282;28;20533;-78
2022/05/16 12:03:38;;;;;;;10.60;4.45;;;;;;;27.02;43.73;100310.31;5043772;28;20046;-78
2022/05/16 12:06:40;;;;;;;7.75;4.55;;;;;;;26.99;44.64;100341.41;5045426;28;20056;-78
2022/05/16 12:09:17;;;;;;;13.45;3.70;;;;;;;26.21;45.08;100358.47;5042199;28;20503;-79
2022/05/16 12:12:11;;;;;;;20.08;4.07;;;;;;;25.24;48.22;100346.81;5049308;28;20041;-81
2022/05/16 12:14:40;;;;;;;18.27;4.10;;;;;;;23.91;54.08;100323.09;5034333;28;20118;-78
2022/05/16 12:17:18;;;;;;;18.07;4.30;;;;;;;21.87;62.81;100364.13;5035033;28;20055;-75
2022/05/16 12:19:53;;;;;;;11.65;4.32;;;;;;;20.39;73.47;100368.75;5040324;28;20061;-74